createdAt,value
2022-12-15T00:00:18.654Z,16.67
2022-12-15T00:03:03.993Z,16.50
2022-12-15T00:05:49.857Z,16.13
2022-12-15T00:08:35.977Z,16.73
2022-12-15T00:11:22.161Z,14.97
2022-12-15T00:14:07.710Z,17.07
2022-12-15T00:16:53.380Z,17.83
2022-12-15T00:19:38.677Z,14.57
2022-12-15T00:22:24.556Z,15.17
2022-12-15T00:25:10.126Z,17.13
2022-12-15T00:27:55.390Z,18.13
2022-12-15T00:30:41.507Z,16.87
2022-12-15T00:33:30.720Z,16.27
2022-12-15T00:36:19.642Z,18.57
2022-12-15T00:38:46.657Z,16.17
2022-12-15T00:41:15.716Z,17.23
2022-12-15T00:43:42.933Z,17.10
2022-12-15T00:46:28.862Z,15.50
2022-12-15T00:48:55.711Z,17.83
2022-12-15T00:51:22.598Z,17.50
2022-12-15T00:54:11.873Z,16.07
2022-12-15T00:57:00.266Z,16.23
2022-12-15T00:59:47.051Z,18.00
2022-12-15T01:02:32.828Z,17.03
2022-12-15T01:05:18.409Z,16.87
2022-12-15T01:08:03.921Z,15.97
2022-12-15T01:10:49.309Z,16.67
2022-12-15T01:13:34.793Z,17.97
2022-12-15T01:16:20.269Z,16.17
2022-12-15T01:19:05.728Z,16.60
2022-12-15T01:21:32.551Z,16.27
2022-12-15T01:23:59.312Z,16.43
2022-12-15T01:26:26.052Z,15.73
2022-12-15T01:28:52.878Z,15.63
2022-12-15T01:31:19.766Z,16.83
2022-12-15T01:33:46.549Z,16.33
2022-12-15T01:36:13.655Z,15.63
2022-12-15T01:38:40.416Z,16.63
2022-12-15T01:41:10.840Z,16.73
2022-12-15T01:43:39.261Z,14.33
2022-12-15T01:46:07.893Z,16.90
2022-12-15T01:48:36.147Z,16.53
2022-12-15T01:51:12.226Z,15.67
2022-12-15T01:53:59.189Z,15.20
2022-12-15T01:56:30.089Z,17.97
2022-12-15T01:59:02.458Z,14.90
2022-12-15T02:01:30.023Z,15.47
2022-12-15T02:03:56.854Z,15.93
2022-12-15T02:06:25.799Z,15.37
2022-12-15T02:08:56.365Z,16.03
2022-12-15T02:12:10.976Z,16.80
2022-12-15T02:15:04.642Z,15.57
2022-12-15T02:17:42.111Z,16.37
2022-12-15T02:20:08.812Z,18.17
2022-12-15T02:22:38.580Z,16.87
2022-12-15T02:25:11.576Z,17.17
2022-12-15T02:27:59.203Z,15.40
2022-12-15T02:30:38.146Z,14.87
2022-12-15T02:33:13.307Z,15.07
2022-12-15T02:36:09.991Z,15.77
2022-12-15T02:38:41.566Z,15.83
2022-12-15T02:41:31.225Z,16.03
2022-12-15T02:43:58.072Z,15.70
2022-12-15T02:46:36.968Z,16.27
2022-12-15T02:49:14.800Z,15.93
2022-12-15T02:51:56.352Z,16.10
2022-12-15T02:54:38.363Z,17.17
2022-12-15T02:57:23.640Z,15.83
2022-12-15T03:00:07.007Z,14.70
2022-12-15T03:02:35.188Z,16.27
2022-12-15T03:05:02.045Z,17.03
2022-12-15T03:07:28.838Z,16.97
2022-12-15T03:09:57.654Z,17.37
2022-12-15T03:12:24.815Z,15.07
2022-12-15T03:14:51.520Z,15.90
2022-12-15T03:17:18.322Z,14.93
2022-12-15T03:19:45.200Z,17.33
2022-12-15T03:22:12.121Z,16.77
2022-12-15T03:24:39.013Z,19.07
2022-12-15T03:27:05.734Z,17.17
2022-12-15T03:29:32.587Z,15.23
2022-12-15T03:31:59.447Z,16.53
2022-12-15T03:34:26.317Z,19.10
2022-12-15T03:36:53.653Z,17.03
2022-12-15T03:39:20.835Z,16.63
2022-12-15T03:41:47.577Z,18.10
2022-12-15T03:44:14.272Z,16.03
2022-12-15T03:46:41.169Z,16.97
2022-12-15T03:49:08.012Z,18.87
2022-12-15T03:51:34.808Z,17.77
2022-12-15T03:54:01.774Z,16.70
2022-12-15T03:56:28.586Z,16.90
2022-12-15T03:58:55.714Z,17.00
2022-12-15T04:01:25.476Z,17.13
2022-12-15T04:03:55.568Z,17.37
2022-12-15T04:06:27.080Z,16.60
2022-12-15T04:08:54.065Z,17.17
2022-12-15T04:11:21.000Z,17.53
2022-12-15T04:13:47.964Z,17.40
2022-12-15T04:16:19.527Z,17.27
2022-12-15T04:18:47.079Z,16.73
2022-12-15T04:21:13.899Z,17.80
2022-12-15T04:23:59.603Z,17.77
2022-12-15T04:26:45.017Z,19.03
2022-12-15T04:29:30.187Z,18.13
2022-12-15T04:32:15.928Z,17.47
2022-12-15T04:35:02.852Z,16.67
2022-12-15T04:37:50.401Z,17.97
2022-12-15T04:40:36.012Z,17.60
2022-12-15T04:43:21.341Z,17.60
2022-12-15T04:46:06.564Z,16.90
2022-12-15T04:48:51.768Z,17.20
2022-12-15T04:51:36.929Z,17.03
2022-12-15T04:54:22.202Z,18.73
2022-12-15T04:57:07.398Z,18.67
2022-12-15T04:59:52.766Z,17.47
2022-12-15T05:02:38.190Z,16.97
2022-12-15T05:05:23.731Z,18.90
2022-12-15T05:08:08.916Z,17.53
2022-12-15T05:10:54.392Z,17.27
2022-12-15T05:13:39.817Z,16.53
2022-12-15T05:16:24.985Z,17.87
2022-12-15T05:19:10.303Z,18.10
2022-12-15T05:21:55.576Z,15.80
2022-12-15T05:24:40.990Z,17.33
2022-12-15T05:27:26.243Z,17.70
2022-12-15T05:30:11.449Z,16.50
2022-12-15T05:32:38.087Z,16.17
2022-12-15T05:35:05.424Z,16.10
2022-12-15T05:37:32.041Z,17.03
2022-12-15T05:39:58.694Z,19.67
2022-12-15T05:42:25.445Z,16.27
2022-12-15T05:44:52.073Z,17.77
2022-12-15T05:47:18.717Z,16.87
2022-12-15T05:49:45.375Z,16.50
2022-12-15T05:52:12.306Z,19.73
2022-12-15T05:54:38.975Z,16.00
2022-12-15T05:57:05.614Z,17.97
2022-12-15T05:59:32.249Z,17.43
2022-12-15T06:01:58.946Z,18.03
2022-12-15T06:04:25.872Z,17.63
2022-12-15T06:06:52.683Z,18.03
2022-12-15T06:09:19.376Z,17.67
2022-12-15T06:11:46.530Z,18.47
2022-12-15T06:14:13.230Z,17.97
2022-12-15T06:16:50.377Z,17.03
2022-12-15T06:19:18.413Z,18.90
2022-12-15T06:21:45.047Z,17.63
2022-12-15T06:24:11.801Z,19.53
2022-12-15T06:26:39.870Z,17.87
2022-12-15T06:29:08.687Z,18.97
2022-12-15T06:31:37.056Z,18.30
2022-12-15T06:34:06.142Z,17.90
2022-12-15T06:36:32.949Z,18.87
2022-12-15T06:39:00.942Z,16.80
2022-12-15T06:41:30.368Z,16.93
2022-12-15T06:43:57.483Z,17.50
2022-12-15T06:46:25.495Z,17.73
2022-12-15T06:48:53.268Z,19.37
2022-12-15T06:51:20.629Z,18.47
2022-12-15T06:53:53.686Z,18.33
2022-12-15T06:56:33.703Z,18.57
2022-12-15T06:59:02.291Z,16.70
2022-12-15T07:01:29.564Z,17.93
2022-12-15T07:03:57.024Z,17.70
2022-12-15T07:06:23.962Z,16.90
2022-12-15T07:08:52.887Z,18.33
2022-12-15T07:11:21.043Z,16.97
2022-12-15T07:13:54.384Z,18.43
2022-12-15T07:16:22.724Z,15.83
2022-12-15T07:18:49.536Z,18.27
2022-12-15T07:21:16.965Z,16.67
2022-12-15T07:24:00.804Z,16.57
2022-12-15T07:26:28.469Z,15.57
2022-12-15T07:28:56.025Z,18.57
2022-12-15T07:31:28.746Z,17.13
2022-12-15T07:33:56.937Z,17.73
2022-12-15T07:36:28.901Z,16.37
2022-12-15T07:39:03.350Z,18.43
2022-12-15T07:41:30.420Z,18.27
2022-12-15T07:43:58.117Z,17.87
2022-12-15T07:46:30.966Z,16.27
2022-12-15T07:48:59.374Z,14.97
2022-12-15T07:51:26.179Z,18.23
2022-12-15T07:53:53.015Z,16.50
2022-12-15T07:56:22.560Z,19.20
2022-12-15T07:58:49.551Z,16.70
2022-12-15T08:01:20.155Z,16.83
2022-12-15T08:04:03.847Z,15.73
2022-12-15T08:06:41.930Z,17.00
2022-12-15T08:09:09.665Z,18.60
2022-12-15T08:11:36.461Z,17.77
2022-12-15T08:14:04.980Z,16.10
2022-12-15T08:16:34.794Z,16.50
2022-12-15T08:19:01.906Z,15.50
2022-12-15T08:21:37.581Z,16.63
2022-12-15T08:24:04.691Z,17.83
2022-12-15T08:26:31.877Z,17.97
2022-12-15T08:29:40.582Z,17.70
2022-12-15T08:31:52.060Z,17.87
2022-12-15T08:34:21.382Z,16.30
2022-12-15T08:36:48.065Z,16.60
2022-12-15T08:39:14.839Z,16.70
2022-12-15T08:41:41.690Z,18.07
2022-12-15T08:44:08.726Z,16.33
2022-12-15T08:46:36.897Z,17.17
2022-12-15T08:49:03.961Z,17.40
2022-12-15T08:51:32.676Z,17.27
2022-12-15T08:54:00.533Z,16.50
2022-12-15T08:56:27.927Z,16.00
2022-12-15T08:58:59.068Z,16.50
2022-12-15T09:01:27.345Z,17.70
2022-12-15T09:03:56.451Z,17.17
2022-12-15T09:06:29.689Z,18.10
2022-12-15T09:09:01.434Z,18.63
2022-12-15T09:11:29.186Z,16.53
2022-12-15T09:14:29.584Z,17.60
2022-12-15T09:16:56.731Z,17.03
2022-12-15T09:19:26.453Z,17.50
2022-12-15T09:21:59.352Z,16.47
2022-12-15T09:25:29.026Z,15.93
2022-12-15T09:28:07.698Z,16.33
2022-12-15T09:33:48.687Z,16.20
2022-12-15T09:36:29.319Z,15.03
2022-12-15T09:42:06.177Z,17.27
2022-12-15T09:44:39.082Z,17.53
2022-12-15T09:47:40.869Z,15.83
2022-12-15T09:50:45.697Z,15.37
2022-12-15T09:53:52.920Z,16.57
2022-12-15T09:56:24.267Z,17.10
2022-12-15T09:59:37.591Z,16.80
2022-12-15T10:02:04.586Z,18.47
2022-12-15T10:05:11.803Z,15.50
2022-12-15T10:07:46.611Z,14.87
2022-12-15T10:10:39.894Z,15.90
2022-12-15T10:13:23.491Z,16.97
2022-12-15T10:15:59.629Z,14.83
2022-12-15T10:18:44.664Z,16.47
2022-12-15T10:21:32.481Z,17.33
2022-12-15T10:24:17.629Z,16.00
2022-12-15T10:27:02.957Z,14.90
2022-12-15T10:32:51.103Z,15.37
2022-12-15T10:35:42.242Z,15.00
2022-12-15T10:38:34.552Z,15.57
2022-12-15T10:41:05.783Z,16.30
2022-12-15T10:43:44.313Z,15.37
2022-12-15T10:46:15.044Z,15.93
2022-12-15T10:48:48.849Z,15.77
2022-12-15T10:51:24.546Z,16.53
2022-12-15T10:54:10.252Z,16.30
2022-12-15T10:56:50.160Z,14.80
2022-12-15T10:59:32.083Z,17.60
2022-12-15T11:05:15.504Z,16.77
2022-12-15T11:08:14.989Z,15.77
2022-12-15T11:11:12.897Z,16.23
2022-12-15T11:17:22.875Z,16.10
2022-12-15T11:22:53.478Z,16.40
2022-12-15T11:25:26.070Z,16.07
2022-12-15T11:27:55.977Z,16.33
2022-12-15T11:30:46.522Z,15.03
2022-12-15T11:36:46.917Z,16.47
2022-12-15T11:39:36.980Z,15.00
2022-12-15T11:42:15.675Z,16.03
2022-12-15T11:44:49.405Z,17.00
2022-12-15T11:47:44.832Z,16.10
2022-12-15T11:50:26.572Z,14.57
2022-12-15T11:53:29.269Z,16.73
2022-12-15T11:56:21.728Z,17.23
2022-12-15T11:59:22.330Z,15.00
2022-12-15T12:02:11.340Z,16.23
2022-12-15T12:05:15.542Z,16.20
2022-12-15T12:07:46.300Z,16.53
2022-12-15T12:10:24.735Z,16.00
2022-12-15T12:13:17.957Z,15.97
2022-12-15T12:15:51.390Z,14.57
2022-12-15T12:18:19.710Z,15.60
2022-12-15T12:20:50.788Z,15.87
2022-12-15T12:23:47.151Z,16.10
2022-12-15T12:26:35.964Z,15.03
2022-12-15T12:29:44.680Z,17.07
2022-12-15T12:32:37.307Z,15.00
2022-12-15T12:38:13.774Z,17.17
2022-12-15T12:40:40.427Z,15.03
2022-12-15T12:45:59.724Z,14.40
2022-12-15T12:48:32.893Z,15.17
2022-12-15T12:51:22.973Z,13.73
2022-12-15T12:53:50.359Z,15.73
2022-12-15T12:56:37.797Z,17.57
2022-12-15T12:59:29.487Z,15.33
2022-12-15T13:01:58.010Z,15.77
2022-12-15T13:04:30.823Z,15.60
2022-12-15T13:06:59.444Z,16.63
2022-12-15T13:09:42.938Z,15.23
2022-12-15T13:12:51.304Z,14.67
2022-12-15T13:15:27.615Z,18.10
2022-12-15T13:18:07.724Z,15.03
2022-12-15T13:20:36.919Z,15.43
2022-12-15T13:23:22.007Z,14.70
2022-12-15T13:26:00.290Z,15.07
2022-12-15T13:28:36.117Z,14.97
2022-12-15T13:31:18.900Z,14.93
2022-12-15T13:33:54.682Z,17.93
2022-12-15T13:36:39.888Z,16.90
2022-12-15T13:39:12.592Z,15.17
2022-12-15T13:44:54.686Z,14.67
2022-12-15T13:47:29.291Z,15.87
2022-12-15T13:50:10.913Z,14.50
2022-12-15T13:56:07.087Z,15.50
2022-12-15T13:58:44.602Z,15.23
2022-12-15T14:01:31.838Z,15.60
2022-12-15T14:04:16.098Z,14.83
2022-12-15T14:06:52.906Z,14.97
2022-12-15T14:09:23.117Z,16.23
2022-12-15T14:14:42.742Z,16.57
2022-12-15T14:17:15.303Z,16.93
2022-12-15T14:19:44.262Z,15.40
2022-12-15T14:22:28.168Z,13.90
2022-12-15T14:25:09.121Z,14.30
2022-12-15T14:27:35.901Z,15.40
2022-12-15T14:30:26.647Z,16.00
2022-12-15T14:33:03.052Z,14.03
2022-12-15T14:35:33.813Z,15.73
2022-12-15T14:38:02.631Z,14.40
2022-12-15T14:40:30.227Z,13.47
2022-12-15T14:42:57.146Z,13.50
2022-12-15T14:45:26.593Z,16.60
2022-12-15T14:48:39.056Z,14.50
2022-12-15T14:50:48.611Z,15.43
2022-12-15T14:53:17.913Z,13.97
2022-12-15T14:55:44.790Z,13.37
2022-12-15T14:58:34.943Z,14.53
2022-12-15T15:01:03.519Z,14.83
2022-12-15T15:03:04.401Z,15.13
2022-12-15T15:03:06.810Z,15.27
2022-12-15T15:03:09.171Z,15.57
2022-12-15T15:03:09.975Z,14.97
2022-12-15T15:03:10.853Z,14.77
2022-12-15T15:03:39.185Z,15.33
2022-12-15T15:06:16.972Z,15.43
2022-12-15T15:08:46.379Z,13.37
2022-12-15T15:11:30.002Z,13.53
2022-12-15T15:13:59.554Z,13.93
2022-12-15T15:16:26.652Z,12.77
2022-12-15T15:18:55.293Z,15.13
2022-12-15T15:21:27.873Z,13.67
2022-12-15T15:24:22.462Z,13.83
2022-12-15T15:26:49.236Z,12.43
2022-12-15T15:29:38.434Z,11.43
2022-12-15T15:32:20.149Z,11.83
2022-12-15T15:34:47.287Z,13.87
2022-12-15T15:37:24.715Z,13.60
2022-12-15T15:39:55.252Z,13.83
2022-12-15T15:42:25.491Z,12.33
2022-12-15T15:44:55.856Z,11.87
2022-12-15T15:47:26.094Z,12.13
2022-12-15T15:49:54.829Z,11.10
2022-12-15T15:52:21.947Z,13.30
2022-12-15T15:54:48.605Z,12.73
2022-12-15T15:57:16.676Z,12.27
2022-12-15T15:59:44.242Z,12.13
2022-12-15T16:02:13.451Z,11.97
2022-12-15T16:04:42.342Z,10.90
2022-12-15T16:07:21.285Z,11.40
2022-12-15T16:09:50.802Z,12.87
2022-12-15T16:12:25.607Z,12.23
2022-12-15T16:14:52.290Z,11.90
2022-12-15T16:17:19.019Z,11.20
2022-12-15T16:19:45.928Z,12.93
2022-12-15T16:22:16.384Z,12.67
2022-12-15T16:24:43.623Z,12.70
2022-12-15T16:27:12.171Z,11.30
2022-12-15T16:29:39.525Z,10.33
2022-12-15T16:32:07.037Z,11.20
2022-12-15T16:34:33.724Z,11.83
2022-12-15T16:37:00.414Z,12.53
2022-12-15T16:39:29.154Z,12.27
2022-12-15T16:41:56.612Z,10.57
2022-12-15T16:44:24.793Z,11.00
2022-12-15T16:46:51.544Z,12.07
2022-12-15T16:49:18.289Z,12.10
2022-12-15T16:51:50.947Z,11.87
2022-12-15T16:54:21.586Z,11.00
2022-12-15T16:56:48.475Z,10.13
2022-12-15T16:59:32.560Z,10.60
2022-12-15T17:02:01.062Z,11.63
2022-12-15T17:04:27.960Z,12.47
2022-12-15T17:06:55.035Z,10.73
2022-12-15T17:09:23.598Z,10.87
2022-12-15T17:11:51.023Z,11.03
2022-12-15T17:14:17.744Z,11.43
2022-12-15T17:16:44.483Z,11.07
2022-12-15T17:19:13.857Z,11.40
2022-12-15T17:21:48.494Z,11.73
2022-12-15T17:24:17.185Z,10.70
2022-12-15T17:26:44.551Z,10.43
2022-12-15T17:29:30.785Z,11.63
2022-12-15T17:31:57.516Z,11.50
2022-12-15T17:34:32.720Z,11.87
2022-12-15T17:37:02.272Z,11.17
2022-12-15T17:39:29.372Z,11.83
2022-12-15T17:42:01.387Z,10.97
2022-12-15T17:44:35.606Z,11.67
2022-12-15T17:47:05.325Z,10.73
2022-12-15T17:49:36.023Z,12.10
2022-12-15T17:52:09.074Z,12.10
2022-12-15T17:54:35.704Z,11.10
2022-12-15T17:57:02.375Z,13.03
2022-12-15T17:59:29.068Z,11.17
2022-12-15T18:01:58.537Z,11.27
2022-12-15T18:04:25.354Z,11.30
2022-12-15T18:06:56.648Z,11.90
2022-12-15T18:09:26.618Z,10.23
2022-12-15T18:11:53.637Z,11.17
2022-12-15T18:14:22.774Z,11.07
2022-12-15T18:16:49.683Z,10.67
2022-12-15T18:19:16.387Z,11.40
2022-12-15T18:21:43.096Z,13.60
2022-12-15T18:24:13.979Z,12.20
2022-12-15T18:26:40.732Z,13.07
2022-12-15T18:29:17.500Z,11.53
2022-12-15T18:31:48.399Z,11.37
2022-12-15T18:34:21.017Z,11.90
2022-12-15T18:36:47.892Z,11.17
2022-12-15T18:39:19.560Z,12.10
2022-12-15T18:41:46.638Z,12.93
2022-12-15T18:44:25.234Z,12.40
2022-12-15T18:46:52.296Z,12.63
2022-12-15T18:49:19.428Z,12.27
2022-12-15T18:51:46.904Z,10.63
2022-12-15T18:54:20.334Z,10.93
2022-12-15T18:56:47.281Z,10.83
2022-12-15T18:59:15.966Z,12.20
2022-12-15T19:01:43.906Z,11.87
2022-12-15T19:04:10.824Z,12.07
2022-12-15T19:06:38.280Z,13.23
2022-12-15T19:09:17.751Z,12.10
2022-12-15T19:12:05.605Z,12.07
2022-12-15T19:14:41.135Z,12.80
2022-12-15T19:17:31.365Z,13.00
2022-12-15T19:20:16.509Z,13.43
2022-12-15T19:22:44.127Z,12.30
2022-12-15T19:25:15.002Z,14.20
2022-12-15T19:27:41.774Z,12.30
2022-12-15T19:30:19.462Z,14.27
2022-12-15T19:32:46.103Z,13.83
2022-12-15T19:35:12.773Z,13.13
2022-12-15T19:37:41.613Z,12.80
2022-12-15T19:40:11.232Z,13.50
2022-12-15T19:42:37.917Z,15.93
2022-12-15T19:45:22.655Z,14.90
2022-12-15T19:47:49.348Z,14.30
2022-12-15T19:50:22.378Z,15.13
2022-12-15T19:52:53.059Z,13.50
2022-12-15T19:55:26.651Z,13.80
2022-12-15T19:57:53.452Z,13.17
2022-12-15T20:00:21.931Z,15.03
2022-12-15T20:02:54.495Z,13.17
2022-12-15T20:05:22.985Z,13.90
2022-12-15T20:07:51.455Z,14.20
2022-12-15T20:10:25.928Z,14.03
2022-12-15T20:12:57.002Z,13.53
2022-12-15T20:15:25.822Z,14.83
2022-12-15T20:17:56.482Z,14.00
2022-12-15T20:20:24.726Z,15.23
2022-12-15T20:22:54.745Z,14.63
2022-12-15T20:25:25.430Z,13.53
2022-12-15T20:27:52.169Z,15.17
2022-12-15T20:30:25.086Z,13.23
2022-12-15T20:32:51.873Z,16.43
2022-12-15T20:35:20.345Z,14.03
2022-12-15T20:37:47.534Z,14.20
2022-12-15T20:40:22.906Z,14.90
2022-12-15T20:42:51.303Z,15.17
2022-12-15T20:45:21.608Z,17.30
2022-12-15T20:47:50.060Z,16.27
2022-12-15T20:50:41.197Z,16.00
2022-12-15T20:53:34.691Z,15.20
2022-12-15T20:56:01.528Z,15.63
2022-12-15T20:58:32.879Z,15.70
2022-12-15T21:01:00.388Z,14.57
2022-12-15T21:03:29.886Z,15.70
2022-12-15T21:05:57.979Z,16.37
2022-12-15T21:08:32.187Z,17.83
2022-12-15T21:11:14.708Z,13.53
2022-12-15T21:13:41.774Z,15.77
2022-12-15T21:16:15.582Z,14.77
2022-12-15T21:19:19.198Z,14.60
2022-12-15T21:21:37.528Z,15.40
2022-12-15T21:24:22.843Z,17.40
2022-12-15T21:26:50.842Z,15.13
2022-12-15T21:29:23.932Z,18.17
2022-12-15T21:31:51.404Z,15.90
2022-12-15T21:34:18.044Z,16.40
2022-12-15T21:36:47.778Z,15.07
2022-12-15T21:39:29.261Z,16.00
2022-12-15T21:42:02.643Z,17.10
2022-12-15T21:44:29.435Z,15.57
2022-12-15T21:46:56.097Z,15.47
2022-12-15T21:49:23.361Z,18.20
2022-12-15T21:51:58.344Z,15.33
2022-12-15T21:54:30.989Z,15.77
2022-12-15T21:56:59.228Z,14.67
2022-12-15T21:59:29.084Z,17.73
2022-12-15T22:01:56.179Z,14.07
2022-12-15T22:04:30.505Z,16.27
2022-12-15T22:06:57.170Z,15.03
2022-12-15T22:09:23.866Z,15.90
2022-12-15T22:11:53.762Z,17.07
2022-12-15T22:14:30.558Z,16.23
2022-12-15T22:17:07.865Z,16.00
2022-12-15T22:19:34.577Z,15.37
2022-12-15T22:22:01.640Z,16.20
2022-12-15T22:24:34.087Z,16.47
2022-12-15T22:27:00.973Z,15.70
2022-12-15T22:29:31.786Z,15.80
2022-12-15T22:31:58.584Z,16.53
2022-12-15T22:34:27.129Z,17.13
2022-12-15T22:36:54.978Z,19.40
2022-12-15T22:39:22.016Z,17.17
2022-12-15T22:41:56.448Z,16.53
2022-12-15T22:44:29.650Z,16.53
2022-12-15T22:46:59.252Z,16.47
2022-12-15T22:49:41.072Z,18.30
2022-12-15T23:08:08.275Z,18.97
2022-12-15T23:10:53.808Z,18.10
2022-12-15T23:13:21.481Z,18.07
2022-12-15T23:16:07.306Z,18.13
2022-12-15T23:18:34.055Z,17.90
2022-12-15T23:21:01.595Z,19.33
2022-12-15T23:23:31.295Z,19.47
2022-12-15T23:25:58.517Z,17.83
2022-12-15T23:28:25.562Z,17.63
2022-12-15T23:30:52.851Z,18.00
2022-12-15T23:33:19.774Z,17.93
2022-12-15T23:35:47.079Z,16.90
2022-12-15T23:38:14.168Z,17.80
2022-12-15T23:40:49.576Z,19.50
2022-12-15T23:43:19.987Z,18.20
2022-12-15T23:45:54.629Z,17.13
2022-12-15T23:48:21.242Z,19.73
2022-12-15T23:50:47.894Z,19.03
2022-12-15T23:53:14.550Z,17.17
2022-12-15T23:55:41.169Z,18.57
2022-12-15T23:58:07.863Z,17.03
